createdAt,value
2023-04-23T00:00:03.455Z,26.73
2023-04-23T00:02:34.376Z,32.45
2023-04-23T00:05:04.538Z,38.67
2023-04-23T00:07:33.644Z,43.65
2023-04-23T00:10:01.661Z,31.98
2023-04-23T00:12:30.182Z,34.10
2023-04-23T00:14:59.655Z,32.13
2023-04-23T00:17:27.386Z,33.38
2023-04-23T00:19:55.078Z,29.90
2023-04-23T00:22:22.727Z,30.92
2023-04-23T00:24:50.331Z,28.80
2023-04-23T00:27:23.206Z,39.65
2023-04-23T00:29:51.392Z,33.47
2023-04-23T00:32:20.778Z,37.80
2023-04-23T00:34:49.217Z,32.97
2023-04-23T00:37:16.831Z,31.77
2023-04-23T00:39:44.621Z,32.80
2023-04-23T00:42:12.745Z,32.40
2023-04-23T00:44:41.885Z,30.23
2023-04-23T00:47:09.878Z,30.33
2023-04-23T00:49:40.133Z,32.65
2023-04-23T00:52:07.752Z,29.33
2023-04-23T00:54:35.400Z,28.27
2023-04-23T00:57:03.300Z,31.52
2023-04-23T00:59:31.610Z,33.08
2023-04-23T01:01:59.821Z,32.67
2023-04-23T01:04:29.540Z,34.15
2023-04-23T01:06:59.027Z,30.05
2023-04-23T01:09:27.754Z,25.42
2023-04-23T01:11:55.583Z,27.23
2023-04-23T01:14:23.739Z,31.20
2023-04-23T01:16:52.870Z,24.13
2023-04-23T01:19:20.787Z,25.50
2023-04-23T01:21:48.503Z,23.10
2023-04-23T01:24:17.594Z,21.08
2023-04-23T01:26:45.732Z,22.33
2023-04-23T01:29:14.231Z,20.17
2023-04-23T01:31:42.208Z,21.17
2023-04-23T01:34:09.864Z,19.13
2023-04-23T01:36:37.559Z,19.83
2023-04-23T01:39:05.729Z,16.65
2023-04-23T01:41:34.806Z,19.70
2023-04-23T01:44:02.602Z,21.17
2023-04-23T01:46:30.857Z,16.75
2023-04-23T01:48:58.634Z,18.50
2023-04-23T01:51:27.142Z,17.80
2023-04-23T01:53:54.951Z,17.15
2023-04-23T01:56:24.040Z,16.52
2023-04-23T01:58:53.046Z,14.45
2023-04-23T02:01:20.759Z,14.93
2023-04-23T02:03:50.431Z,18.63
2023-04-23T02:06:18.154Z,19.50
2023-04-23T02:08:45.899Z,16.35
2023-04-23T02:11:13.603Z,15.23
2023-04-23T02:13:41.226Z,15.88
2023-04-23T02:16:10.427Z,14.20
2023-04-23T02:18:38.093Z,17.58
2023-04-23T02:21:06.616Z,16.17
2023-04-23T02:23:34.240Z,13.57
2023-04-23T02:26:01.984Z,14.35
2023-04-23T02:28:29.630Z,17.63
2023-04-23T02:30:57.218Z,15.02
2023-04-23T02:33:26.782Z,17.02
2023-04-23T02:35:54.420Z,16.23
2023-04-23T02:38:22.037Z,14.23
2023-04-23T02:40:49.708Z,17.60
2023-04-23T02:43:18.200Z,17.30
2023-04-23T02:45:46.993Z,17.80
2023-04-23T02:48:14.847Z,19.52
2023-04-23T02:50:43.863Z,16.17
2023-04-23T02:53:11.604Z,17.58
2023-04-23T02:55:39.239Z,16.75
2023-04-23T02:58:07.423Z,21.88
2023-04-23T03:00:35.073Z,19.65
2023-04-23T03:03:02.908Z,17.08
2023-04-23T03:05:30.757Z,16.45
2023-04-23T03:08:00.778Z,17.85
2023-04-23T03:10:28.396Z,19.35
2023-04-23T03:12:58.001Z,22.60
2023-04-23T03:15:27.333Z,25.52
2023-04-23T03:17:55.008Z,24.40
2023-04-23T03:20:22.778Z,21.58
2023-04-23T03:22:50.612Z,17.33
2023-04-23T03:25:20.409Z,21.13
2023-04-23T03:27:49.380Z,17.65
2023-04-23T03:30:17.050Z,17.92
2023-04-23T03:32:44.738Z,22.25
2023-04-23T03:35:12.476Z,14.55
2023-04-23T03:37:40.320Z,22.02
2023-04-23T03:40:09.302Z,19.17
2023-04-23T03:42:38.579Z,17.50
2023-04-23T03:45:06.845Z,19.80
2023-04-23T03:47:36.971Z,19.02
2023-04-23T03:50:05.495Z,12.75
2023-04-23T03:52:33.194Z,15.50
2023-04-23T03:55:00.869Z,17.25
2023-04-23T03:57:28.622Z,18.25
2023-04-23T03:59:57.576Z,15.00
2023-04-23T04:02:25.400Z,15.93
2023-04-23T04:04:55.217Z,15.50
2023-04-23T04:07:23.201Z,14.27
2023-04-23T04:09:51.518Z,16.17
2023-04-23T04:12:19.362Z,15.00
2023-04-23T04:14:46.977Z,14.38
2023-04-23T04:17:16.318Z,16.63
2023-04-23T04:19:44.072Z,16.88
2023-04-23T04:22:11.696Z,15.13
2023-04-23T04:24:42.083Z,14.88
2023-04-23T04:27:10.317Z,15.60
2023-04-23T04:29:40.772Z,15.35
2023-04-23T04:32:09.329Z,17.88
2023-04-23T04:34:39.402Z,17.27
2023-04-23T04:37:07.841Z,20.63
2023-04-23T04:39:35.449Z,18.30
2023-04-23T04:42:03.990Z,28.58
2023-04-23T04:44:32.241Z,16.33
2023-04-23T04:47:00.139Z,16.75
2023-04-23T04:49:28.566Z,14.90
2023-04-23T04:51:57.532Z,15.82
2023-04-23T04:54:25.155Z,14.98
2023-04-23T04:56:52.780Z,15.55
2023-04-23T04:59:20.415Z,15.13
2023-04-23T05:01:48.080Z,17.75
2023-04-23T05:04:15.796Z,21.50
2023-04-23T05:06:43.552Z,16.45
2023-04-23T05:09:13.133Z,14.05
2023-04-23T05:11:41.264Z,15.82
2023-04-23T05:14:09.033Z,16.80
2023-04-23T05:16:36.680Z,16.25
2023-04-23T05:19:04.306Z,14.13
2023-04-23T05:21:31.949Z,18.48
2023-04-23T05:23:59.615Z,12.40
2023-04-23T05:26:28.686Z,12.27
2023-04-23T05:28:56.723Z,11.80
2023-04-23T05:31:24.685Z,7.85
2023-04-23T05:33:52.390Z,11.13
2023-04-23T05:36:20.051Z,11.75
2023-04-23T05:38:47.910Z,14.45
2023-04-23T05:41:15.862Z,14.27
2023-04-23T05:43:45.348Z,13.75
2023-04-23T05:46:13.040Z,17.10
2023-04-23T05:48:40.662Z,11.52
2023-04-23T05:51:08.560Z,19.60
2023-04-23T05:53:36.466Z,8.02
2023-04-23T05:56:04.105Z,7.95
2023-04-23T05:58:31.741Z,11.55
2023-04-23T06:01:00.778Z,5.55
2023-04-23T06:03:29.566Z,13.25
2023-04-23T06:05:58.505Z,7.65
2023-04-23T06:08:26.221Z,8.02
2023-04-23T06:10:55.922Z,7.13
2023-04-23T06:13:24.546Z,6.72
2023-04-23T06:15:53.963Z,6.68
2023-04-23T06:18:22.995Z,5.57
2023-04-23T06:20:51.613Z,6.70
2023-04-23T06:23:19.274Z,6.68
2023-04-23T06:25:46.952Z,5.88
2023-04-23T06:28:15.294Z,4.45
2023-04-23T06:30:42.885Z,6.50
2023-04-23T06:33:11.221Z,5.22
2023-04-23T06:35:40.214Z,7.25
2023-04-23T06:38:08.036Z,5.78
2023-04-23T06:40:35.756Z,5.32
2023-04-23T06:43:05.348Z,7.43
2023-04-23T06:45:33.542Z,4.32
2023-04-23T06:48:02.107Z,5.68
2023-04-23T06:50:29.747Z,5.32
2023-04-23T06:52:58.886Z,7.75
2023-04-23T06:55:26.733Z,4.13
2023-04-23T06:57:56.941Z,6.40
2023-04-23T07:00:24.933Z,6.82
2023-04-23T07:02:52.772Z,7.05
2023-04-23T07:05:20.874Z,6.65
2023-04-23T07:07:48.531Z,7.72
2023-04-23T07:10:18.090Z,3.25
2023-04-23T07:12:46.502Z,6.85
2023-04-23T07:15:14.170Z,7.82
2023-04-23T07:17:42.094Z,7.43
2023-04-23T07:20:10.181Z,6.03
2023-04-23T07:22:37.810Z,8.82
2023-04-23T07:25:06.166Z,5.55
2023-04-23T07:27:35.674Z,7.28
2023-04-23T07:30:05.247Z,4.75
2023-04-23T07:32:32.891Z,8.35
2023-04-23T07:35:00.581Z,4.32
2023-04-23T07:37:28.209Z,6.50
2023-04-23T07:39:55.813Z,4.95
2023-04-23T07:42:23.485Z,7.13
2023-04-23T07:44:52.481Z,3.53
2023-04-23T07:47:20.215Z,6.90
2023-04-23T07:49:48.050Z,4.35
2023-04-23T07:52:16.253Z,8.32
2023-04-23T07:54:43.902Z,4.57
2023-04-23T07:57:12.436Z,8.73
2023-04-23T07:59:40.375Z,3.58
2023-04-23T08:02:09.663Z,5.55
2023-04-23T08:04:37.600Z,7.72
2023-04-23T08:07:05.608Z,3.53
2023-04-23T08:09:33.612Z,5.22
2023-04-23T08:12:02.085Z,3.28
2023-04-23T08:14:29.690Z,6.35
2023-04-23T08:16:57.658Z,7.30
2023-04-23T08:19:31.777Z,5.97
2023-04-23T08:21:59.419Z,9.20
2023-04-23T08:24:27.226Z,8.25
2023-04-23T08:26:54.883Z,5.57
2023-04-23T08:29:22.758Z,1.90
2023-04-23T08:31:50.782Z,9.50
2023-04-23T08:34:18.568Z,5.50
2023-04-23T08:36:48.910Z,6.13
2023-04-23T08:39:17.122Z,2.58
2023-04-23T08:41:45.971Z,5.40
2023-04-23T08:44:15.065Z,6.63
2023-04-23T08:46:43.634Z,10.15
2023-04-23T08:49:14.779Z,7.32
2023-04-23T08:51:44.136Z,4.80
2023-04-23T08:54:16.228Z,3.85
2023-04-23T08:56:43.881Z,3.60
2023-04-23T08:59:11.951Z,3.65
2023-04-23T09:01:39.722Z,5.05
2023-04-23T09:04:08.696Z,4.47
2023-04-23T09:06:36.334Z,8.95
2023-04-23T09:09:04.903Z,3.28
2023-04-23T09:11:34.104Z,4.68
2023-04-23T09:14:01.792Z,7.55
2023-04-23T09:16:29.818Z,6.22
2023-04-23T09:19:02.212Z,6.50
2023-04-23T09:21:29.842Z,6.97
2023-04-23T09:23:57.503Z,5.15
2023-04-23T09:26:25.936Z,2.53
2023-04-23T09:28:56.018Z,4.68
2023-04-23T09:31:24.463Z,6.28
2023-04-23T09:33:53.564Z,12.60
2023-04-23T09:36:37.366Z,7.70
2023-04-23T09:39:23.745Z,5.25
2023-04-23T09:41:53.085Z,3.38
2023-04-23T09:44:23.500Z,2.65
2023-04-23T09:46:52.050Z,1.67
2023-04-23T09:49:20.451Z,6.30
2023-04-23T09:51:49.157Z,4.47
2023-04-23T09:54:20.071Z,6.20
2023-04-23T09:56:50.754Z,6.72
2023-04-23T09:59:35.515Z,5.82
2023-04-23T10:02:12.003Z,6.95
2023-04-23T10:04:40.894Z,9.30
2023-04-23T10:07:19.878Z,4.20
2023-04-23T10:09:48.401Z,4.20
2023-04-23T10:14:53.802Z,6.75
2023-04-23T10:17:21.629Z,4.35
2023-04-23T10:19:50.258Z,6.30
2023-04-23T10:22:20.115Z,5.00
2023-04-23T10:24:52.196Z,3.42
2023-04-23T10:27:51.175Z,3.10
2023-04-23T10:30:21.613Z,5.95
2023-04-23T10:32:50.079Z,7.05
2023-04-23T10:35:19.191Z,2.63
2023-04-23T10:37:48.462Z,3.22
2023-04-23T10:40:19.946Z,6.53
2023-04-23T10:42:48.066Z,5.70
2023-04-23T10:45:24.592Z,5.40
2023-04-23T10:47:56.453Z,4.93
2023-04-23T10:50:25.481Z,1.15
2023-04-23T10:52:54.536Z,7.05
2023-04-23T10:55:23.442Z,4.30
2023-04-23T10:57:58.692Z,1.90
2023-04-23T11:03:53.065Z,4.20
2023-04-23T11:06:21.452Z,5.47
2023-04-23T11:09:02.972Z,6.25
2023-04-23T11:11:41.405Z,2.50
2023-04-23T11:14:14.196Z,4.82
2023-04-23T11:16:42.206Z,3.60
2023-04-23T11:19:20.718Z,3.42
2023-04-23T11:21:59.542Z,5.65
2023-04-23T11:24:28.465Z,3.72
2023-04-23T11:26:56.449Z,5.32
2023-04-23T11:29:26.062Z,11.13
2023-04-23T11:32:02.462Z,7.22
2023-04-23T11:34:33.292Z,4.47
2023-04-23T11:37:01.661Z,3.40
2023-04-23T11:39:29.314Z,6.05
2023-04-23T11:41:57.847Z,9.50
2023-04-23T11:44:25.530Z,2.28
2023-04-23T11:46:53.184Z,1.85
2023-04-23T11:49:21.793Z,5.03
2023-04-23T11:51:51.554Z,2.78
2023-04-23T11:54:20.115Z,2.45
2023-04-23T11:56:47.790Z,4.57
2023-04-23T11:59:15.551Z,6.05
2023-04-23T12:01:43.976Z,2.15
2023-04-23T12:04:15.218Z,1.65
2023-04-23T12:06:43.967Z,5.70
2023-04-23T12:09:13.864Z,2.78
2023-04-23T12:11:42.401Z,3.28
2023-04-23T12:14:10.509Z,4.25
2023-04-23T12:16:39.076Z,3.50
2023-04-23T12:19:09.055Z,4.32
2023-04-23T12:21:36.796Z,6.45
2023-04-23T12:24:05.445Z,4.25
2023-04-23T12:26:34.577Z,6.55
2023-04-23T12:29:03.720Z,2.55
2023-04-23T12:31:31.496Z,9.88
2023-04-23T12:34:00.370Z,2.03
2023-04-23T12:36:29.422Z,1.75
2023-04-23T12:39:17.197Z,4.13
2023-04-23T12:41:50.345Z,2.88
2023-04-23T12:44:18.097Z,4.13
2023-04-23T12:46:45.830Z,1.33
2023-04-23T12:49:13.624Z,2.55
2023-04-23T12:51:41.318Z,1.80
2023-04-23T12:54:08.982Z,1.58
2023-04-23T12:56:37.768Z,2.65
2023-04-23T12:59:06.841Z,5.32
2023-04-23T13:01:34.578Z,1.52
2023-04-23T13:04:02.303Z,3.53
2023-04-23T13:06:30.068Z,3.53
2023-04-23T13:08:58.020Z,3.45
2023-04-23T13:11:25.632Z,2.10
2023-04-23T13:13:53.428Z,1.70
2023-04-23T13:16:22.899Z,3.50
2023-04-23T13:18:51.556Z,3.33
2023-04-23T13:21:19.836Z,3.13
2023-04-23T13:23:47.538Z,6.63
2023-04-23T13:26:15.379Z,3.95
2023-04-23T13:28:43.003Z,11.73
2023-04-23T13:31:12.005Z,2.33
2023-04-23T13:33:41.015Z,7.00
2023-04-23T13:36:09.059Z,4.80
2023-04-23T13:38:37.105Z,2.63
2023-04-23T13:41:06.220Z,4.45
2023-04-23T13:43:33.841Z,2.83
2023-04-23T13:46:01.561Z,2.38
2023-04-23T13:48:31.314Z,3.03
2023-04-23T13:51:20.735Z,3.75
2023-04-23T13:53:54.111Z,2.97
2023-04-23T13:56:21.853Z,1.88
2023-04-23T13:58:49.478Z,3.25
2023-04-23T14:01:17.199Z,6.80
2023-04-23T14:03:44.814Z,2.58
2023-04-23T14:06:13.811Z,3.28
2023-04-23T14:08:41.474Z,2.45
2023-04-23T14:11:09.239Z,3.65
2023-04-23T14:13:37.086Z,4.00
2023-04-23T14:16:04.805Z,2.72
2023-04-23T14:18:33.379Z,2.92
2023-04-23T14:21:07.278Z,3.85
2023-04-23T14:23:46.156Z,4.55
2023-04-23T14:26:21.902Z,2.20
2023-04-23T14:28:51.846Z,3.47
2023-04-23T14:31:19.583Z,4.88
2023-04-23T14:33:47.267Z,4.20
2023-04-23T14:36:14.872Z,1.98
2023-04-23T14:38:42.618Z,3.15
2023-04-23T14:41:15.877Z,2.33
2023-04-23T14:43:43.762Z,4.65
2023-04-23T14:46:11.532Z,5.13
2023-04-23T14:48:41.010Z,2.83
2023-04-23T14:51:15.638Z,6.72
2023-04-23T14:53:43.360Z,2.42
2023-04-23T14:56:11.394Z,3.60
2023-04-23T14:58:41.359Z,5.93
2023-04-23T15:01:14.513Z,3.30
2023-04-23T15:03:42.308Z,2.05
2023-04-23T15:06:10.751Z,2.78
2023-04-23T15:08:38.381Z,4.57
2023-04-23T15:11:19.493Z,2.33
2023-04-23T15:13:56.244Z,2.58
2023-04-23T15:16:44.075Z,3.97
2023-04-23T15:19:17.950Z,2.25
2023-04-23T15:21:46.922Z,2.58
2023-04-23T15:24:14.682Z,7.72
2023-04-23T15:26:42.388Z,2.70
2023-04-23T15:29:13.711Z,3.65
2023-04-23T15:31:41.886Z,7.30
2023-04-23T15:34:09.802Z,3.40
2023-04-23T15:36:38.439Z,4.38
2023-04-23T15:39:06.988Z,3.45
2023-04-23T15:41:40.578Z,4.25
2023-04-23T15:44:12.502Z,6.03
2023-04-23T15:46:40.497Z,7.25
2023-04-23T15:49:08.310Z,6.82
2023-04-23T15:51:51.181Z,4.68
2023-04-23T15:54:18.866Z,8.32
2023-04-23T15:56:46.546Z,5.63
2023-04-23T15:59:22.171Z,3.63
2023-04-23T16:01:50.091Z,2.20
2023-04-23T16:04:18.026Z,2.22
2023-04-23T16:06:45.934Z,1.10
2023-04-23T16:09:13.970Z,3.42
2023-04-23T16:11:41.985Z,2.72
2023-04-23T16:14:10.201Z,1.58
2023-04-23T16:16:40.660Z,1.75
2023-04-23T16:19:10.410Z,0.98
2023-04-23T16:21:38.135Z,0.43
2023-04-23T16:24:08.082Z,0.70
2023-04-23T16:26:35.800Z,1.33
2023-04-23T16:29:16.489Z,0.30
2023-04-23T16:31:55.475Z,1.17
2023-04-23T16:34:31.365Z,5.03
2023-04-23T16:36:58.992Z,0.60
2023-04-23T16:39:35.110Z,0.65
2023-04-23T16:42:03.852Z,0.55
2023-04-23T16:44:32.222Z,0.52
2023-04-23T16:47:13.186Z,1.23
2023-04-23T16:49:40.917Z,1.38
2023-04-23T16:52:08.897Z,1.67
2023-04-23T16:54:36.865Z,1.25
2023-04-23T16:57:07.416Z,1.02
2023-04-23T16:59:35.163Z,1.30
2023-04-23T17:02:08.985Z,0.77
2023-04-23T17:04:38.527Z,7.53
2023-04-23T17:07:08.142Z,1.13
2023-04-23T17:09:41.252Z,1.02
2023-04-23T17:12:10.303Z,1.60
2023-04-23T17:14:38.152Z,1.08
2023-04-23T17:17:08.419Z,2.40
2023-04-23T17:19:36.784Z,2.10
2023-04-23T17:22:17.930Z,2.38
2023-04-23T17:24:46.117Z,3.15
2023-04-23T17:27:13.777Z,3.65
2023-04-23T17:29:41.423Z,3.25
2023-04-23T17:32:13.728Z,3.78
2023-04-23T17:34:42.637Z,4.57
2023-04-23T17:37:13.639Z,2.55
2023-04-23T17:39:43.353Z,1.92
2023-04-23T17:42:13.469Z,2.13
2023-04-23T17:44:42.021Z,4.50
2023-04-23T17:47:10.311Z,5.43
2023-04-23T17:49:38.053Z,4.88
2023-04-23T17:52:06.563Z,4.35
2023-04-23T17:54:36.487Z,6.80
2023-04-23T17:57:04.710Z,6.07
2023-04-23T17:59:36.562Z,6.05
2023-04-23T18:02:04.964Z,9.70
2023-04-23T18:04:34.964Z,8.40
2023-04-23T18:07:02.624Z,8.15
2023-04-23T18:09:30.286Z,7.40
2023-04-23T18:12:00.258Z,7.03
2023-04-23T18:14:28.215Z,5.13
2023-04-23T18:16:56.203Z,4.10
2023-04-23T18:19:23.892Z,2.88
2023-04-23T18:21:51.503Z,2.38
2023-04-23T18:24:19.434Z,3.58
2023-04-23T18:26:48.660Z,1.92
2023-04-23T18:29:17.732Z,3.65
2023-04-23T18:31:49.998Z,2.95
2023-04-23T18:34:19.354Z,1.17
2023-04-23T18:37:02.262Z,2.97
2023-04-23T18:39:32.439Z,5.00
2023-04-23T18:42:00.214Z,2.17
2023-04-23T18:44:29.367Z,2.97
2023-04-23T18:46:57.176Z,2.60
2023-04-23T18:49:44.821Z,2.97
2023-04-23T18:52:12.564Z,2.17
2023-04-23T18:54:40.943Z,3.28
2023-04-23T18:57:09.086Z,2.08
2023-04-23T18:59:38.189Z,3.47
2023-04-23T19:02:06.258Z,6.40
2023-04-23T19:04:34.653Z,4.30
2023-04-23T19:07:02.526Z,4.72
2023-04-23T19:09:30.312Z,12.93
2023-04-23T19:11:58.787Z,5.43
2023-04-23T19:14:26.601Z,6.13
2023-04-23T19:16:55.914Z,2.33
2023-04-23T19:19:24.488Z,5.20
2023-04-23T19:21:52.741Z,4.68
2023-04-23T19:24:20.571Z,5.72
2023-04-23T19:26:48.265Z,4.20
2023-04-23T19:29:15.972Z,4.50
2023-04-23T19:31:43.795Z,9.15
2023-04-23T19:34:13.392Z,3.50
2023-04-23T19:36:41.010Z,3.55
2023-04-23T19:39:10.347Z,5.22
2023-04-23T19:41:38.187Z,6.90
2023-04-23T19:44:05.832Z,4.18
2023-04-23T19:46:33.642Z,8.63
2023-04-23T19:49:01.388Z,6.60
2023-04-23T19:51:35.464Z,4.85
2023-04-23T19:54:03.169Z,5.78
2023-04-23T19:56:31.341Z,4.38
2023-04-23T19:58:59.019Z,4.28
2023-04-23T20:01:28.220Z,7.22
2023-04-23T20:03:56.160Z,5.82
2023-04-23T20:06:23.780Z,8.15
2023-04-23T20:09:12.632Z,9.30
2023-04-23T20:11:40.399Z,9.10
2023-04-23T20:14:08.123Z,9.13
2023-04-23T20:16:36.172Z,7.95
2023-04-23T20:19:05.073Z,12.10
2023-04-23T20:21:32.909Z,11.32
2023-04-23T20:24:01.885Z,10.50
2023-04-23T20:26:29.606Z,13.40
2023-04-23T20:28:57.483Z,13.10
2023-04-23T20:31:27.135Z,16.13
2023-04-23T20:33:54.852Z,13.45
2023-04-23T20:36:23.412Z,16.30
2023-04-23T20:38:54.267Z,13.35
2023-04-23T20:41:23.311Z,15.43
2023-04-23T20:43:51.900Z,13.93
2023-04-23T20:46:19.663Z,16.75
2023-04-23T20:48:53.152Z,13.13
2023-04-23T20:51:20.811Z,10.02
2023-04-23T20:53:49.283Z,16.75
2023-04-23T20:56:18.787Z,12.07
2023-04-23T20:58:47.818Z,10.05
2023-04-23T21:01:15.514Z,14.77
2023-04-23T21:03:44.960Z,13.50
2023-04-23T21:06:12.711Z,16.63
2023-04-23T21:08:42.704Z,18.77
2023-04-23T21:11:13.750Z,15.95
2023-04-23T21:13:42.410Z,13.05
2023-04-23T21:16:12.427Z,14.60
2023-04-23T21:18:40.421Z,13.98
2023-04-23T21:21:08.296Z,15.77
2023-04-23T21:23:36.768Z,18.88
2023-04-23T21:26:04.535Z,13.80
2023-04-23T21:28:32.513Z,14.95
2023-04-23T21:31:02.538Z,17.10
2023-04-23T21:33:32.705Z,18.92
2023-04-23T21:36:00.498Z,16.10
2023-04-23T21:38:28.270Z,19.42
2023-04-23T21:40:55.876Z,14.68
2023-04-23T21:43:24.446Z,18.67
2023-04-23T21:45:52.068Z,17.25
2023-04-23T21:48:19.725Z,13.57
2023-04-23T21:50:49.778Z,13.43
2023-04-23T21:53:18.648Z,15.30
2023-04-23T21:55:46.390Z,19.02
2023-04-23T21:58:17.754Z,13.02
2023-04-23T22:00:45.979Z,19.85
2023-04-23T22:03:19.704Z,16.17
2023-04-23T22:06:04.389Z,17.30
2023-04-23T22:08:32.923Z,17.73
2023-04-23T22:11:00.719Z,19.25
2023-04-23T22:13:28.346Z,18.60
2023-04-23T22:15:57.459Z,16.50
2023-04-23T22:18:25.169Z,23.70
2023-04-23T22:20:53.103Z,15.65
2023-04-23T22:23:22.540Z,16.48
2023-04-23T22:25:50.222Z,15.73
2023-04-23T22:28:18.020Z,16.40
2023-04-23T22:30:45.877Z,19.08
2023-04-23T22:33:13.527Z,17.70
2023-04-23T22:35:41.481Z,16.08
2023-04-23T22:38:09.380Z,17.88
2023-04-23T22:40:38.388Z,18.60
2023-04-23T22:43:06.561Z,21.63
2023-04-23T22:45:35.809Z,26.52
2023-04-23T22:48:04.335Z,15.50
2023-04-23T22:50:32.075Z,22.90
2023-04-23T22:52:59.663Z,18.23
2023-04-23T22:55:27.681Z,21.48
2023-04-23T22:57:56.646Z,22.33
2023-04-23T23:00:24.377Z,18.30
2023-04-23T23:02:52.700Z,22.70
2023-04-23T23:05:21.160Z,26.13
2023-04-23T23:07:48.820Z,21.55
2023-04-23T23:10:16.612Z,26.15
2023-04-23T23:12:44.274Z,27.08
2023-04-23T23:15:13.533Z,21.63
2023-04-23T23:17:41.311Z,23.73
2023-04-23T23:20:09.624Z,27.27
2023-04-23T23:22:37.522Z,26.50
2023-04-23T23:25:06.885Z,21.13
2023-04-23T23:27:34.642Z,21.00
2023-04-23T23:30:05.730Z,24.27
2023-04-23T23:32:34.865Z,27.52
2023-04-23T23:35:02.674Z,32.45
2023-04-23T23:37:30.586Z,22.45
2023-04-23T23:39:58.558Z,25.45
2023-04-23T23:42:26.797Z,22.33
2023-04-23T23:44:54.455Z,25.20
2023-04-23T23:47:22.410Z,18.25
2023-04-23T23:49:51.477Z,28.42
2023-04-23T23:52:19.271Z,23.48
2023-04-23T23:54:46.925Z,22.13
2023-04-23T23:57:15.932Z,23.98
2023-04-23T23:59:43.966Z,15.95
